Time;durP1;ratioP1;P1;durP2;ratioP2;P2;SDS_P1;SDS_P2;PMS_P1;PMS_P2;Temp;Humidity;BMP_temperature;BMP_pressure;BME280_temperature;BME280_humidity;BME280_pressure;Samples;Min_cycle;Max_cycle;Signal;HPM_P1;HPM_P2
2022/04/25 00:04:51;;;;;;;12.03;5.57;;;;;;;8.75;76.59;99480.94;3551782;82;98704;-83
2022/04/25 00:09:52;;;;;;;14.13;5.50;;;;;;;8.68;77.11;99485.00;3546215;82;98623;-83
2022/04/25 00:14:53;;;;;;;10.40;5.90;;;;;;;8.63;77.85;99484.03;3576513;82;98493;-83
2022/04/25 00:19:54;;;;;;;11.63;6.17;;;;;;;8.60;77.77;99482.63;3574300;82;98533;-83
2022/04/25 00:24:55;;;;;;;15.23;6.40;;;;;;;8.53;78.16;99487.52;3579639;81;98532;-83
2022/04/25 00:29:57;;;;;;;11.67;6.30;;;;;;;8.49;78.44;99491.39;3581362;82;32943;-83
2022/04/25 00:34:58;;;;;;;10.53;5.57;;;;;;;8.42;78.45;99488.06;3569682;81;98593;-85
2022/04/25 00:39:59;;;;;;;14.80;6.90;;;;;;;8.34;79.30;99489.78;3599786;81;98595;-83
2022/04/25 00:45:00;;;;;;;13.17;5.83;;;;;;;8.30;79.39;99491.71;3586340;81;98527;-84
2022/04/25 00:50:01;;;;;;;16.80;6.30;;;;;;;8.24;79.52;99484.42;3583171;82;98450;-83
2022/04/25 00:55:07;;;;;;;11.15;5.33;;;;;;;8.20;80.33;99486.95;3586429;82;98479;-83
2022/04/25 01:00:12;;;;;;;10.77;5.63;;;;;;;8.15;80.41;99477.69;3593647;82;27434;-83
2022/04/25 01:05:14;;;;;;;12.37;5.62;;;;;;;8.10;80.66;99474.74;3582683;81;98437;-82
2022/04/25 01:10:15;;;;;;;14.97;6.57;;;;;;;8.06;80.89;99473.13;3592833;81;98359;-82
2022/04/25 01:15:16;;;;;;;11.97;6.93;;;;;;;8.05;80.88;99464.14;3573751;82;98847;-84
2022/04/25 01:20:17;;;;;;;12.83;6.97;;;;;;;7.99;81.06;99468.42;3586091;81;98917;-83
2022/04/25 01:30:38;;;;;;;13.53;6.25;;;;;;;7.91;82.32;99474.23;3552492;82;98545;-84
2022/04/25 01:35:40;;;;;;;13.97;7.43;;;;;;;7.82;82.38;99469.67;3504623;83;98170;-83
2022/04/25 01:40:41;;;;;;;14.77;7.80;;;;;;;7.80;82.36;99466.53;3443208;84;98487;-82
2022/04/25 01:45:42;;;;;;;13.33;7.07;;;;;;;7.74;82.85;99472.94;3565197;82;98478;-83
2022/04/25 01:50:43;;;;;;;12.30;6.30;;;;;;;7.70;83.13;99476.23;3573683;81;98455;-82
2022/04/25 01:55:44;;;;;;;13.87;7.03;;;;;;;7.60;83.75;99485.17;3566753;82;98510;-83
2022/04/25 02:00:45;;;;;;;13.27;7.13;;;;;;;7.50;83.86;99485.08;3579062;81;98896;-85
2022/04/25 02:05:46;;;;;;;14.27;7.23;;;;;;;7.42;84.47;99484.22;3504387;83;97876;-83
2022/04/25 02:11:19;;;;;;;12.53;6.73;;;;;;;7.37;85.07;99483.80;3455318;84;98729;-82
2022/04/25 02:15:50;;;;;;;13.63;6.77;;;;;;;7.31;85.28;99487.45;3456314;84;98374;-84
2022/04/25 02:20:51;;;;;;;13.20;6.70;;;;;;;7.27;85.61;99489.97;3565189;82;98528;-84
2022/04/25 02:25:52;;;;;;;16.17;7.77;;;;;;;7.21;86.02;99492.24;3577522;82;98428;-84
2022/04/25 02:30:53;;;;;;;14.53;7.23;;;;;;;7.18;86.12;99492.22;3546310;82;98425;-84
2022/04/25 02:35:54;;;;;;;15.03;7.20;;;;;;;7.18;86.15;99493.02;3552002;82;25972;-85
2022/04/25 02:41:04;;;;;;;11.27;6.73;;;;;;;7.16;86.96;99490.45;3549637;82;98906;-83
2022/04/25 02:46:08;;;;;;;13.32;7.33;;;;;;;7.10;86.91;99491.95;3567830;82;98348;-82
2022/04/25 02:51:11;;;;;;;13.22;7.83;;;;;;;7.08;87.04;99491.52;3574450;82;98877;-82
2022/04/25 02:56:12;;;;;;;13.97;7.43;;;;;;;7.09;87.08;99485.69;3562706;82;98814;-85
2022/04/25 03:01:13;;;;;;;14.50;7.60;;;;;;;7.10;87.22;99492.72;3548761;82;98892;-84
2022/04/25 03:06:14;;;;;;;12.70;6.67;;;;;;;7.10;87.04;99491.95;3561367;82;26422;-83
2022/04/25 03:11:15;;;;;;;14.23;7.07;;;;;;;7.08;87.42;99494.27;3572186;82;98413;-83
2022/04/25 03:16:19;;;;;;;13.30;6.63;;;;;;;7.07;87.84;99502.27;3548500;82;98731;-83
2022/04/25 03:21:20;;;;;;;12.03;6.87;;;;;;;7.02;88.31;99510.81;3569424;82;98865;-82
2022/04/25 03:26:21;;;;;;;14.47;7.20;;;;;;;7.01;87.92;99510.61;3575873;82;98937;-85
2022/04/25 03:31:22;;;;;;;15.40;6.83;;;;;;;7.00;87.88;99510.41;3601389;81;98937;-85
2022/04/25 03:36:23;;;;;;;15.73;8.43;;;;;;;7.00;87.82;99518.62;3605743;81;26451;-82
2022/04/25 03:41:24;;;;;;;11.77;6.33;;;;;;;6.97;88.07;99524.83;3585980;81;98183;-84
2022/04/25 03:46:27;;;;;;;11.10;6.23;;;;;;;6.99;87.85;99521.92;3601040;81;98726;-81
2022/04/25 03:51:29;;;;;;;13.07;6.90;;;;;;;6.99;88.34;99527.98;3608973;81;98943;-86
2022/04/25 04:01:49;;;;;;;12.80;6.28;;;;;;;7.01;87.71;99533.30;3545629;83;98938;-83
2022/04/25 04:06:50;;;;;;;13.40;7.03;;;;;;;7.05;87.65;99534.70;3493232;84;98971;-85
2022/04/25 04:11:52;;;;;;;14.77;7.10;;;;;;;7.03;88.00;99545.23;3595574;81;98566;-83
2022/04/25 04:16:53;;;;;;;12.40;6.30;;;;;;;7.01;88.16;99547.54;3607852;81;98752;-81
2022/04/25 04:21:54;;;;;;;14.97;7.00;;;;;;;7.00;88.42;99550.87;3600090;81;98859;-81
2022/04/25 04:26:57;;;;;;;16.60;7.07;;;;;;;6.99;88.56;99559.45;3602988;81;98505;-82
2022/04/25 04:32:05;;;;;;;13.18;6.03;;;;;;;6.98;88.42;99560.61;3592056;81;98480;-82
2022/04/25 04:37:06;;;;;;;18.85;6.60;;;;;;;7.02;88.53;99566.32;3590208;81;98553;-83
2022/04/25 04:42:08;;;;;;;10.60;5.87;;;;;;;7.03;88.62;99569.86;3595919;81;98584;-84
2022/04/25 04:47:09;;;;;;;15.20;6.83;;;;;;;7.08;88.63;99573.59;3586100;81;98306;-81
2022/04/25 04:52:09;;;;;;;13.00;5.87;;;;;;;7.13;88.79;99582.27;3489056;83;98760;-84
2022/04/25 04:57:10;;;;;;;11.40;5.67;;;;;;;7.15;88.67;99581.91;3495198;83;98548;-84
2022/04/25 05:02:11;;;;;;;11.60;5.63;;;;;;;7.16;88.86;99585.64;3481511;83;98471;-84
2022/04/25 05:07:12;;;;;;;13.83;5.73;;;;;;;7.20;88.35;99589.19;3483795;83;98434;-83
2022/04/25 05:12:13;;;;;;;12.87;5.70;;;;;;;7.23;88.36;99588.45;3470422;84;98193;-84
2022/04/25 05:17:14;;;;;;;10.03;4.83;;;;;;;7.29;88.33;99594.36;3529481;82;98440;-82
2022/04/25 05:22:16;;;;;;;12.00;5.50;;;;;;;7.37;88.40;99602.27;3513741;82;98330;-84
2022/04/25 05:27:17;;;;;;;12.20;5.27;;;;;;;7.41;88.02;99601.73;3529576;82;98575;-84
2022/04/25 05:32:18;;;;;;;9.93;4.37;;;;;;;7.50;87.87;99600.05;3553187;82;98507;-83
2022/04/25 05:37:18;;;;;;;11.05;5.35;;;;;;;7.56;87.62;99603.45;3544530;82;98729;-84
2022/04/25 05:42:19;;;;;;;11.20;5.00;;;;;;;7.63;87.51;99613.09;3536907;82;98859;-85
2022/04/25 05:47:20;;;;;;;14.07;5.43;;;;;;;7.67;87.21;99620.77;3533546;82;98180;-84
2022/04/25 05:52:21;;;;;;;11.57;5.30;;;;;;;7.78;87.24;99620.28;3531667;82;98903;-84
2022/04/25 05:57:22;;;;;;;12.50;4.77;;;;;;;7.89;86.73;99617.63;3535617;82;98471;-83
2022/04/25 06:02:23;;;;;;;12.15;4.97;;;;;;;7.99;86.48;99625.95;3533077;81;98939;-84
2022/04/25 06:07:24;;;;;;;11.97;4.77;;;;;;;8.03;86.08;99630.09;3535544;82;98456;-83
2022/04/25 06:12:26;;;;;;;9.47;4.53;;;;;;;8.08;86.08;99639.34;3513160;82;98549;-83
2022/04/25 06:17:27;;;;;;;11.30;4.73;;;;;;;8.15;85.77;99640.75;3572648;80;98521;-85
2022/04/25 06:22:28;;;;;;;11.93;4.30;;;;;;;8.17;85.58;99643.89;3570424;82;98836;-83
2022/04/25 06:27:29;;;;;;;9.83;4.33;;;;;;;8.28;85.50;99646.19;3573166;81;99061;-85
2022/04/25 06:32:30;;;;;;;11.57;4.53;;;;;;;8.43;85.17;99651.96;3530022;82;98185;-83
2022/04/25 06:37:31;;;;;;;10.90;4.70;;;;;;;8.48;84.68;99656.52;3541221;81;98966;-84
2022/04/25 06:42:32;;;;;;;12.90;4.75;;;;;;;8.58;84.67;99661.30;3532470;82;99168;-83
2022/04/25 06:47:33;;;;;;;9.83;4.40;;;;;;;8.68;84.04;99661.92;3541634;82;31702;-83
2022/04/25 06:52:34;;;;;;;11.23;4.17;;;;;;;8.75;83.78;99668.05;3537750;82;98256;-83
2022/04/25 06:57:35;;;;;;;9.03;4.27;;;;;;;8.76;83.56;99669.04;3542206;82;99189;-84
2022/04/25 07:02:37;;;;;;;10.00;4.47;;;;;;;8.89;83.47;99673.03;3541812;82;99317;-85
2022/04/25 07:07:38;;;;;;;10.83;4.67;;;;;;;8.99;83.18;99667.41;3544718;82;99273;-84
2022/04/25 07:12:39;;;;;;;9.47;4.40;;;;;;;9.06;82.73;99668.81;3525838;82;99113;-85
2022/04/25 07:17:40;;;;;;;10.48;4.25;;;;;;;9.19;82.53;99674.95;3530282;82;32888;-84
2022/04/25 07:33:03;;;;;;;9.55;4.10;;;;;;;9.65;81.89;99684.73;3522054;82;99026;-84
2022/04/25 07:38:05;;;;;;;11.50;4.50;;;;;;;9.96;81.25;99693.62;3554621;82;99211;-85
2022/04/25 07:43:06;;;;;;;9.68;3.80;;;;;;;10.18;80.71;99693.30;3547334;82;99375;-85
2022/04/25 07:48:07;;;;;;;8.50;4.03;;;;;;;10.32;80.27;99694.70;3549968;82;31734;-83
2022/04/25 07:53:08;;;;;;;11.07;4.37;;;;;;;10.64;79.55;99698.19;3547217;82;99399;-84
2022/04/25 07:58:10;;;;;;;8.67;4.27;;;;;;;10.85;78.60;99699.55;3549286;82;99360;-84
2022/04/25 08:03:11;;;;;;;9.23;3.73;;;;;;;10.93;77.60;99703.08;3549983;82;99181;-84
2022/04/25 08:08:12;;;;;;;11.37;4.43;;;;;;;11.10;76.81;99706.38;3554172;81;99179;-84
2022/04/25 08:18:32;;;;;;;7.85;3.72;;;;;;;11.32;76.03;99716.14;3550567;82;98606;-83
2022/04/25 08:23:33;;;;;;;7.87;3.63;;;;;;;11.32;75.24;99712.02;3544594;82;98427;-83
2022/04/25 08:28:35;;;;;;;8.63;3.60;;;;;;;11.43;75.01;99712.17;3552448;82;98426;-84
2022/04/25 08:33:37;;;;;;;9.10;4.63;;;;;;;11.55;74.80;99717.23;3471263;84;99073;-85
2022/04/25 08:38:40;;;;;;;11.17;4.60;;;;;;;11.68;74.49;99723.92;3456150;83;99023;-85
2022/04/25 08:43:41;;;;;;;9.68;4.17;;;;;;;11.74;73.65;99727.83;3464968;84;99011;-86
2022/04/25 08:48:43;;;;;;;8.70;4.23;;;;;;;11.79;73.49;99732.92;3470581;84;98681;-85
2022/04/25 08:53:45;;;;;;;10.28;4.60;;;;;;;11.86;73.43;99732.88;3498285;83;98421;-85
2022/04/25 08:58:46;;;;;;;9.65;4.65;;;;;;;11.99;73.22;99745.01;3468210;84;99122;-84
2022/04/25 09:03:47;;;;;;;7.67;3.40;;;;;;;12.02;72.79;99730.42;3442565;84;98741;-85
2022/04/25 09:08:49;;;;;;;9.07;4.27;;;;;;;12.15;71.40;99754.20;3496388;83;98630;-84
2022/04/25 09:13:50;;;;;;;14.80;6.03;;;;;;;11.99;71.70;99752.52;3507768;82;99188;-86
2022/04/25 09:18:51;;;;;;;14.70;6.67;;;;;;;11.90;71.40;99742.50;3535775;82;99133;-83
2022/04/25 09:23:52;;;;;;;9.20;4.53;;;;;;;11.87;71.56;99740.53;3491697;83;98876;-83
2022/04/25 09:28:57;;;;;;;11.70;5.37;;;;;;;11.81;71.05;99743.52;3519282;82;98596;-83
2022/04/25 09:34:14;;;;;;;10.55;4.12;;;;;;;11.83;71.49;99752.97;3577598;80;99004;-85
2022/04/25 09:39:30;;;;;;;9.45;4.15;;;;;;;11.99;71.62;99753.89;3616035;80;99200;-85
2022/04/25 09:44:58;;;;;;;12.28;3.55;;;;;;;12.05;71.23;99759.94;3607405;80;98740;-84
2022/04/25 09:50:04;;;;;;;7.33;3.52;;;;;;;12.05;70.26;99770.97;3592982;80;98839;-85
2022/04/25 09:55:14;;;;;;;9.08;3.50;;;;;;;12.14;70.79;99770.53;3593655;80;98610;-86
2022/04/25 10:00:33;;;;;;;7.75;3.33;;;;;;;12.10;70.36;99773.31;3604733;80;33242;-84
2022/04/25 10:05:48;;;;;;;9.63;4.58;;;;;;;12.26;71.30;99765.34;3605658;80;98471;-85
2022/04/25 10:10:53;;;;;;;7.60;3.33;;;;;;;12.73;70.62;99772.89;3617334;80;98566;-86
2022/04/25 10:15:56;;;;;;;7.12;3.22;;;;;;;13.05;70.37;99777.58;3608436;80;98738;-86
2022/04/25 10:20:59;;;;;;;8.03;3.10;;;;;;;13.25;67.59;99781.30;3601301;80;98749;-85
2022/04/25 10:26:01;;;;;;;6.17;2.47;;;;;;;13.28;67.23;99787.41;3567476;81;98631;-85
2022/04/25 10:31:16;;;;;;;9.93;3.55;;;;;;;13.20;67.23;99785.13;3549005;81;99081;-83
2022/04/25 10:36:44;;;;;;;7.40;3.42;;;;;;;13.24;66.83;99794.94;3572501;81;33234;-85
2022/04/25 10:47:24;;;;;;;6.87;2.80;;;;;;;13.19;66.32;99799.52;3537140;82;98522;-84
2022/04/25 10:58:07;;;;;;;6.00;2.90;;;;;;;12.90;65.91;99799.57;3553858;82;98768;-84
2022/04/25 11:03:24;;;;;;;8.68;3.15;;;;;;;12.96;65.54;99805.45;3540846;81;99583;-85
2022/04/25 11:08:34;;;;;;;7.12;3.00;;;;;;;12.83;65.91;99814.03;3547909;82;98997;-84
2022/04/25 11:14:01;;;;;;;9.88;3.72;;;;;;;12.49;65.88;99823.52;3542463;82;99018;-86
2022/04/25 11:19:16;;;;;;;7.10;3.17;;;;;;;12.56;66.59;99826.26;3581879;81;98728;-85
2022/04/25 11:24:38;;;;;;;7.33;3.25;;;;;;;12.70;67.09;99830.28;3580212;80;98738;-84
2022/04/25 11:29:47;;;;;;;6.45;3.30;;;;;;;12.85;66.95;99830.96;3594095;81;98554;-86
2022/04/25 11:34:49;;;;;;;6.83;2.92;;;;;;;12.88;66.37;99832.92;3581017;81;99326;-85
2022/04/25 11:40:04;;;;;;;8.08;3.55;;;;;;;12.89;66.13;99844.16;3553560;82;99229;-85
2022/04/25 11:45:07;;;;;;;4.75;2.65;;;;;;;12.82;66.02;99852.50;3526001;82;99234;-85
2022/04/25 11:50:14;;;;;;;6.25;2.85;;;;;;;12.87;66.47;99858.98;3542453;82;99066;-84
2022/04/25 11:55:13;;;;;;;7.47;3.33;;;;;;;12.92;65.65;99859.93;3535748;82;99185;-83
2022/04/25 12:00:17;;;;;;;6.60;2.95;;;;;;;12.87;65.82;99870.02;3541537;82;31925;-85
2022/04/25 12:05:27;;;;;;;5.75;2.98;;;;;;;12.86;65.91;99869.84;3527759;82;99509;-84
2022/04/25 12:15:48;;;;;;;6.17;3.00;;;;;;;12.96;65.95;99877.27;3533598;81;99427;-85
2022/04/25 12:20:53;;;;;;;8.23;3.33;;;;;;;12.83;65.76;99882.48;3547609;82;99182;-82
2022/04/25 12:25:55;;;;;;;6.83;2.83;;;;;;;12.83;66.21;99888.59;3530148;82;99114;-84
2022/04/25 12:31:08;;;;;;;7.45;3.15;;;;;;;12.87;66.17;99894.27;3532298;82;99742;-84
2022/04/25 12:36:20;;;;;;;10.32;3.70;;;;;;;12.73;66.04;99897.72;3540410;82;33866;-85
2022/04/25 12:41:38;;;;;;;9.13;3.87;;;;;;;12.73;66.29;99897.14;3542951;81;98792;-86
2022/04/25 12:46:55;;;;;;;9.13;4.75;;;;;;;12.59;66.09;99880.64;3536315;81;98929;-86
2022/04/25 12:51:59;;;;;;;10.75;4.30;;;;;;;12.57;66.32;99902.36;3526044;82;99209;-84
2022/04/25 12:57:15;;;;;;;9.70;4.42;;;;;;;12.42;66.45;99910.51;3540759;82;98874;-85
2022/04/25 13:02:21;;;;;;;16.32;4.67;;;;;;;12.40;66.87;99910.71;3545451;82;100017;-85
2022/04/25 13:07:25;;;;;;;9.80;4.40;;;;;;;12.52;67.34;99901.97;3539587;82;99284;-84
2022/04/25 13:12:39;;;;;;;10.98;4.67;;;;;;;12.64;67.68;99897.40;3522945;82;98869;-84
2022/04/25 13:17:41;;;;;;;11.75;4.62;;;;;;;12.77;67.39;99908.95;3541575;82;98999;-85
2022/04/25 13:22:44;;;;;;;13.28;5.45;;;;;;;12.91;67.35;99902.55;3530849;82;99238;-85
2022/04/25 13:27:45;;;;;;;9.33;5.15;;;;;;;13.10;67.44;99916.65;3558681;81;98832;-86
2022/04/25 13:32:47;;;;;;;10.73;5.40;;;;;;;13.16;66.37;99916.98;3529216;82;99412;-83
2022/04/25 13:37:48;;;;;;;14.85;7.35;;;;;;;13.14;66.22;99916.01;3537141;82;98827;-84
2022/04/25 13:42:51;;;;;;;11.40;5.23;;;;;;;13.12;66.21;99918.98;3538626;81;99077;-82
2022/04/25 13:47:52;;;;;;;9.70;4.45;;;;;;;13.14;65.50;99922.91;3430555;85;32473;-84
2022/04/25 13:52:54;;;;;;;9.93;4.90;;;;;;;13.13;65.40;99934.39;3457585;84;98693;-84
2022/04/25 13:57:56;;;;;;;23.30;13.48;;;;;;;13.15;65.37;99933.38;3471831;83;99089;-84
2022/04/25 14:03:06;;;;;;;16.40;8.13;;;;;;;13.12;65.91;99946.61;3529688;82;99658;-84
2022/04/25 14:08:11;;;;;;;12.90;5.80;;;;;;;13.15;65.20;99947.99;3538752;82;98881;-85
2022/04/25 14:13:13;;;;;;;14.70;5.25;;;;;;;13.15;65.37;99943.84;3508323;83;98922;-85
2022/04/25 14:18:13;;;;;;;10.82;5.12;;;;;;;13.17;65.09;99942.84;3548979;82;33727;-85
2022/04/25 14:23:14;;;;;;;15.83;6.30;;;;;;;13.18;65.12;99941.64;3529951;82;98652;-85
2022/04/25 14:28:15;;;;;;;10.53;4.80;;;;;;;13.27;65.56;99953.62;3528252;82;98729;-85
2022/04/25 14:33:16;;;;;;;12.97;5.60;;;;;;;13.33;64.90;99958.90;3543431;82;99449;-85
2022/04/25 14:38:22;;;;;;;12.47;7.12;;;;;;;13.33;64.90;99969.95;3557978;82;99475;-86
2022/04/25 14:43:22;;;;;;;15.33;6.73;;;;;;;13.34;64.67;99964.61;3528033;82;98955;-86
2022/04/25 14:48:23;;;;;;;9.95;5.20;;;;;;;13.42;64.75;99966.91;3550231;82;33276;-85
2022/04/25 14:58:44;;;;;;;13.25;6.03;;;;;;;13.36;65.09;99967.16;3541822;82;98674;-85
2022/04/25 15:03:45;;;;;;;11.45;5.00;;;;;;;13.42;64.48;99976.59;3544821;82;99542;-85
2022/04/25 15:08:46;;;;;;;13.00;6.00;;;;;;;13.29;64.76;99974.12;3542521;82;98935;-84
2022/04/25 15:13:47;;;;;;;9.93;4.50;;;;;;;13.19;64.92;99977.74;3531935;82;98888;-85
2022/04/25 15:18:48;;;;;;;11.63;5.07;;;;;;;13.03;64.94;99981.59;3544435;82;31994;-85
2022/04/25 15:23:49;;;;;;;9.13;4.50;;;;;;;12.90;64.93;99990.72;3528985;82;98928;-83
2022/04/25 15:28:50;;;;;;;10.30;5.20;;;;;;;12.82;65.01;99998.25;3536301;82;99006;-84
2022/04/25 15:33:51;;;;;;;11.00;4.80;;;;;;;12.78;65.30;100000.84;3499785;82;99444;-85
2022/04/25 15:38:52;;;;;;;7.93;3.73;;;;;;;12.67;65.44;100006.42;3488665;83;99042;-82
2022/04/25 15:43:54;;;;;;;12.80;4.40;;;;;;;12.59;65.59;100011.77;3496337;82;98906;-85
2022/04/25 15:48:54;;;;;;;10.23;5.03;;;;;;;12.53;65.69;100013.98;3512174;82;99002;-85
2022/04/25 15:59:15;;;;;;;9.83;4.42;;;;;;;12.51;66.06;100027.37;3500122;83;98881;-85
2022/04/25 16:04:16;;;;;;;9.90;5.57;;;;;;;12.37;65.94;100039.85;3491311;83;99054;-83
2022/04/25 16:09:18;;;;;;;8.20;4.40;;;;;;;12.22;66.16;100036.92;3501763;83;98912;-83
2022/04/25 16:14:19;;;;;;;9.10;4.07;;;;;;;12.16;66.59;100035.75;3504792;83;98909;-84
2022/04/25 16:19:20;;;;;;;10.83;4.13;;;;;;;12.11;66.78;100038.91;3507685;83;98864;-84
2022/04/25 16:24:21;;;;;;;11.10;5.03;;;;;;;12.10;66.86;100031.82;3493537;82;99017;-84
2022/04/25 16:29:23;;;;;;;21.20;12.87;;;;;;;12.04;66.95;100036.17;3472276;84;98883;-85
2022/04/25 16:34:24;;;;;;;11.73;5.20;;;;;;;11.93;67.46;100045.81;3422526;85;99622;-84
2022/04/25 16:39:30;;;;;;;12.10;5.97;;;;;;;11.83;67.48;100046.59;3498647;83;99034;-85
2022/04/25 16:44:28;;;;;;;14.33;7.17;;;;;;;11.57;68.18;100040.66;3498777;82;99673;-84
2022/04/25 16:49:29;;;;;;;27.57;15.97;;;;;;;11.57;68.18;100040.66;3493425;83;99127;-84
2022/04/25 16:54:30;;;;;;;18.27;11.10;;;;;;;11.62;68.11;100057.61;3493719;83;99215;-85
2022/04/25 16:59:32;;;;;;;10.17;5.40;;;;;;;11.57;68.24;100062.71;3513162;82;98920;-84
2022/04/25 17:04:33;;;;;;;10.23;5.60;;;;;;;11.53;68.31;100069.60;3500157;82;99787;-84
2022/04/25 17:09:35;;;;;;;13.93;7.27;;;;;;;11.52;68.46;100072.74;3516692;83;99402;-85
2022/04/25 17:14:36;;;;;;;15.53;7.97;;;;;;;11.46;68.84;100084.72;3491362;82;99346;-83
2022/04/25 17:19:37;;;;;;;15.57;7.53;;;;;;;11.19;69.51;100074.44;3511515;82;99309;-86
2022/04/25 17:24:38;;;;;;;15.60;6.83;;;;;;;11.19;69.51;100074.44;3497019;83;98877;-84
2022/04/25 17:29:40;;;;;;;11.77;5.37;;;;;;;11.23;69.79;100096.68;3512342;83;99259;-85
